createdAt,value
2022-08-07T00:00:26.315Z,100.00
2022-08-07T00:02:56.075Z,100.00
2022-08-07T00:05:24.133Z,100.00
2022-08-07T00:08:00.290Z,100.00
2022-08-07T00:10:31.417Z,100.00
2022-08-07T00:13:03.211Z,100.00
2022-08-07T00:15:46.826Z,100.00
2022-08-07T00:18:24.303Z,100.00
2022-08-07T00:20:54.927Z,82.15
2022-08-07T00:23:28.365Z,100.00
2022-08-07T00:26:00.125Z,100.00
2022-08-07T00:28:34.015Z,100.00
2022-08-07T00:31:05.856Z,100.00
2022-08-07T00:33:34.754Z,100.00
2022-08-07T00:36:04.112Z,100.00
2022-08-07T00:38:34.968Z,100.00
2022-08-07T00:41:05.133Z,82.82
2022-08-07T00:44:01.747Z,100.00
2022-08-07T00:46:26.257Z,100.00
2022-08-07T00:48:54.096Z,100.00
2022-08-07T00:51:22.219Z,100.00
2022-08-07T00:53:57.304Z,100.00
2022-08-07T00:56:30.406Z,84.96
2022-08-07T00:59:02.304Z,100.00
2022-08-07T01:04:10.026Z,100.00
2022-08-07T01:06:38.578Z,100.00
2022-08-07T01:09:08.467Z,100.00
2022-08-07T01:12:10.078Z,100.00
2022-08-07T01:14:37.228Z,100.00
2022-08-07T01:17:07.200Z,100.00
2022-08-07T01:19:38.390Z,100.00
2022-08-07T01:22:09.338Z,100.00
2022-08-07T01:24:50.947Z,100.00
2022-08-07T01:27:19.322Z,100.00
2022-08-07T01:29:48.078Z,100.00
2022-08-07T01:32:18.893Z,100.00
2022-08-07T01:34:47.327Z,100.00
2022-08-07T01:37:18.963Z,100.00
2022-08-07T01:39:48.830Z,100.00
2022-08-07T01:42:38.729Z,100.00
2022-08-07T01:45:09.686Z,93.48
2022-08-07T01:48:20.560Z,100.00
2022-08-07T01:50:28.933Z,100.00
2022-08-07T01:53:01.632Z,100.00
2022-08-07T01:55:40.639Z,100.00
2022-08-07T01:58:29.179Z,100.00
2022-08-07T02:01:10.012Z,100.00
2022-08-07T02:03:57.570Z,100.00
2022-08-07T02:06:31.679Z,100.00
2022-08-07T02:12:02.681Z,100.00
2022-08-07T02:14:40.403Z,100.00
2022-08-07T02:17:11.235Z,93.44
2022-08-07T02:22:31.719Z,100.00
2022-08-07T02:25:02.089Z,100.00
2022-08-07T02:27:36.353Z,87.67
2022-08-07T02:30:18.624Z,100.00
2022-08-07T02:33:01.002Z,100.00
2022-08-07T02:36:28.563Z,100.00
2022-08-07T02:38:34.186Z,100.00
2022-08-07T02:41:05.456Z,100.00
2022-08-07T02:43:39.737Z,100.00
2022-08-07T02:46:09.746Z,100.00
2022-08-07T02:48:37.963Z,100.00
2022-08-07T02:51:29.090Z,100.00
2022-08-07T02:53:59.943Z,100.00
2022-08-07T02:59:05.733Z,100.00
2022-08-07T03:01:39.892Z,100.00
2022-08-07T03:04:12.894Z,100.00
2022-08-07T03:06:44.835Z,82.27
2022-08-07T03:09:14.602Z,100.00
2022-08-07T03:12:05.758Z,100.00
2022-08-07T03:14:36.985Z,100.00
2022-08-07T03:17:06.108Z,100.00
2022-08-07T03:19:37.527Z,100.00
2022-08-07T03:22:07.117Z,100.00
2022-08-07T03:24:37.141Z,100.00
2022-08-07T03:27:09.613Z,100.00
2022-08-07T03:29:46.065Z,100.00
2022-08-07T03:32:22.714Z,100.00
2022-08-07T03:35:17.138Z,100.00
2022-08-07T03:37:46.402Z,100.00
2022-08-07T03:40:22.361Z,100.00
2022-08-07T03:42:52.817Z,100.00
2022-08-07T03:45:30.895Z,100.00
2022-08-07T03:48:00.408Z,100.00
2022-08-07T03:50:29.686Z,100.00
2022-08-07T03:52:59.156Z,100.00
2022-08-07T03:55:52.843Z,100.00
2022-08-07T03:59:05.566Z,100.00
2022-08-07T04:01:11.169Z,100.00
2022-08-07T04:03:53.133Z,100.00
2022-08-07T04:06:37.308Z,100.00
2022-08-07T04:09:08.516Z,100.00
2022-08-07T04:12:25.501Z,100.00
2022-08-07T04:14:37.249Z,100.00
2022-08-07T04:17:20.321Z,100.00
2022-08-07T04:19:52.239Z,100.00
2022-08-07T04:22:28.983Z,100.00
2022-08-07T04:25:00.849Z,100.00
2022-08-07T04:27:35.406Z,100.00
2022-08-07T04:30:11.875Z,100.00
2022-08-07T04:32:49.203Z,100.00
2022-08-07T04:35:26.984Z,100.00
2022-08-07T04:38:05.591Z,100.00
2022-08-07T04:40:34.947Z,100.00
2022-08-07T04:43:03.575Z,100.00
2022-08-07T04:48:36.744Z,100.00
2022-08-07T04:51:09.029Z,100.00
2022-08-07T04:54:01.757Z,100.00
2022-08-07T04:58:07.303Z,100.00
2022-08-07T05:00:12.242Z,100.00
2022-08-07T05:02:28.618Z,100.00
2022-08-07T05:05:11.939Z,100.00
2022-08-07T05:07:59.752Z,100.00
2022-08-07T05:10:34.366Z,100.00
2022-08-07T05:14:44.524Z,100.00
2022-08-07T05:15:59.212Z,100.00
2022-08-07T05:18:36.678Z,100.00
2022-08-07T05:21:06.761Z,100.00
2022-08-07T05:23:39.820Z,100.00
2022-08-07T05:26:18.777Z,100.00
2022-08-07T05:28:57.883Z,100.00
2022-08-07T05:31:35.337Z,100.00
2022-08-07T05:34:10.898Z,100.00
2022-08-07T05:36:41.694Z,100.00
2022-08-07T05:40:05.382Z,100.00
2022-08-07T05:42:00.245Z,100.00
2022-08-07T05:44:34.978Z,100.00
2022-08-07T05:47:17.890Z,100.00
2022-08-07T05:49:49.911Z,100.00
2022-08-07T05:52:20.046Z,100.00
2022-08-07T05:54:55.374Z,100.00
2022-08-07T06:00:00.291Z,100.00
2022-08-07T06:02:32.512Z,100.00
2022-08-07T06:05:06.537Z,100.00
2022-08-07T06:08:14.647Z,100.00
2022-08-07T06:10:25.101Z,100.00
2022-08-07T06:15:21.931Z,100.00
2022-08-07T06:18:08.052Z,100.00
2022-08-07T06:20:50.422Z,100.00
2022-08-07T06:24:36.943Z,82.23
2022-08-07T06:26:27.409Z,100.00
2022-08-07T06:28:58.970Z,100.00
2022-08-07T06:31:49.373Z,100.00
2022-08-07T06:34:14.925Z,100.00
2022-08-07T06:36:44.226Z,100.00
2022-08-07T06:40:16.245Z,82.39
2022-08-07T06:42:05.661Z,83.66
2022-08-07T06:44:39.559Z,83.67
2022-08-07T06:47:10.357Z,100.00
2022-08-07T06:49:51.707Z,82.33
2022-08-07T06:52:31.531Z,100.00
2022-08-07T06:55:31.624Z,85.17
2022-08-07T06:58:05.211Z,100.00
2022-08-07T07:00:39.794Z,100.00
2022-08-07T07:03:13.923Z,100.00
2022-08-07T07:06:02.626Z,100.00
2022-08-07T07:08:33.275Z,100.00
2022-08-07T07:11:14.060Z,100.00
2022-08-07T07:13:57.583Z,100.00
2022-08-07T07:16:31.955Z,100.00
2022-08-07T07:19:33.906Z,100.00
2022-08-07T07:22:04.621Z,100.00
2022-08-07T07:24:56.751Z,100.00
2022-08-07T07:27:35.856Z,94.00
2022-08-07T07:30:26.535Z,83.87
2022-08-07T07:35:54.223Z,94.02
2022-08-07T07:38:26.537Z,82.50
2022-08-07T07:41:02.211Z,88.27
2022-08-07T07:44:14.475Z,94.05
2022-08-07T07:46:40.020Z,83.22
2022-08-07T07:50:34.516Z,94.12
2022-08-07T07:52:02.430Z,82.58
2022-08-07T07:54:33.480Z,100.00
2022-08-07T07:57:06.933Z,100.00
2022-08-07T07:59:51.546Z,94.20
2022-08-07T08:02:34.334Z,100.00
2022-08-07T08:05:05.398Z,100.00
2022-08-07T08:07:51.445Z,100.00
2022-08-07T08:10:35.696Z,100.00
2022-08-07T08:13:10.321Z,100.00
2022-08-07T08:15:58.713Z,84.21
2022-08-07T08:18:29.245Z,100.00
2022-08-07T08:21:00.019Z,100.00
2022-08-07T08:23:48.642Z,84.43
2022-08-07T08:26:37.188Z,100.00
2022-08-07T08:29:08.424Z,84.39
2022-08-07T08:34:29.297Z,100.00
2022-08-07T08:36:58.966Z,84.49
2022-08-07T08:39:39.504Z,84.40
2022-08-07T08:42:27.891Z,88.82
2022-08-07T08:45:04.494Z,100.00
2022-08-07T08:47:52.402Z,100.00
2022-08-07T08:50:35.250Z,100.00
2022-08-07T08:53:20.488Z,83.79
2022-08-07T08:55:54.848Z,100.00
2022-08-07T08:58:35.193Z,94.62
2022-08-07T09:01:15.178Z,100.00
2022-08-07T09:03:52.696Z,85.97
2022-08-07T09:06:33.887Z,100.00
2022-08-07T09:09:23.629Z,83.23
2022-08-07T09:12:20.225Z,88.79
2022-08-07T09:16:25.688Z,88.92
2022-08-07T09:18:15.780Z,83.19
2022-08-07T09:24:29.004Z,84.67
2022-08-07T09:30:03.873Z,83.37
2022-08-07T09:32:18.725Z,100.00
2022-08-07T09:35:00.115Z,84.64
2022-08-07T09:40:27.955Z,83.26
2022-08-07T09:47:24.103Z,83.84
2022-08-07T09:48:50.205Z,83.91
2022-08-07T09:52:16.825Z,89.00
2022-08-07T09:54:42.278Z,100.00
2022-08-07T10:00:08.263Z,84.58
2022-08-07T10:03:08.310Z,83.36
2022-08-07T10:06:12.176Z,83.25
2022-08-07T10:09:34.538Z,86.14
2022-08-07T10:15:44.486Z,83.20
2022-08-07T10:24:40.632Z,86.14
2022-08-07T10:27:46.728Z,83.27
2022-08-07T10:30:19.085Z,83.17
2022-08-07T10:34:05.833Z,83.95
2022-08-07T10:36:37.643Z,84.68
2022-08-07T10:39:17.434Z,100.00
2022-08-07T10:42:09.308Z,83.99
2022-08-07T10:44:57.606Z,83.29
2022-08-07T10:50:25.925Z,83.30
2022-08-07T10:53:05.383Z,83.97
2022-08-07T10:55:45.050Z,86.14
2022-08-07T10:58:32.000Z,89.08
2022-08-07T11:01:22.327Z,83.88
2022-08-07T11:04:23.185Z,84.63
2022-08-07T11:06:56.450Z,83.31
2022-08-07T11:10:08.672Z,83.66
2022-08-07T11:12:31.985Z,83.30
2022-08-07T11:15:14.491Z,100.00
2022-08-07T11:17:47.904Z,83.40
2022-08-07T11:20:24.392Z,89.30
2022-08-07T11:23:01.472Z,84.77
2022-08-07T11:25:47.842Z,83.33
2022-08-07T11:28:24.664Z,100.00
2022-08-07T11:30:57.798Z,84.86
2022-08-07T11:33:53.526Z,83.47
2022-08-07T11:39:20.361Z,83.48
2022-08-07T11:42:02.018Z,83.53
2022-08-07T11:44:52.296Z,83.45
2022-08-07T11:47:55.853Z,83.55
2022-08-07T11:50:57.609Z,83.29
2022-08-07T11:56:27.220Z,83.51
2022-08-07T12:04:43.088Z,83.55
2022-08-07T12:07:27.048Z,83.41
2022-08-07T12:15:46.106Z,83.36
2022-08-07T12:24:07.053Z,89.50
2022-08-07T12:26:46.921Z,83.52
2022-08-07T12:29:37.326Z,83.42
2022-08-07T12:37:27.750Z,84.36
2022-08-07T12:39:59.284Z,83.80
2022-08-07T12:47:49.349Z,83.60
2022-08-07T12:50:34.053Z,83.59
2022-08-07T12:53:18.620Z,83.98
2022-08-07T13:04:05.246Z,84.00
2022-08-07T13:07:00.500Z,83.60
2022-08-07T13:15:31.650Z,86.57
2022-08-07T13:24:03.922Z,83.64
2022-08-07T13:42:21.539Z,83.88
2022-08-07T13:47:27.775Z,83.60
2022-08-07T13:55:37.103Z,83.70
2022-08-07T14:08:54.763Z,83.77
2022-08-07T14:24:29.167Z,83.65
2022-08-07T14:35:43.264Z,83.72
2022-08-07T15:00:03.683Z,83.91
2022-08-07T15:07:51.028Z,83.65
2022-08-07T15:25:14.831Z,83.69
2022-08-07T15:38:29.868Z,83.74
2022-08-07T15:46:38.406Z,83.77
2022-08-07T15:49:14.555Z,83.74
2022-08-07T16:08:29.097Z,83.69
2022-08-07T16:10:15.555Z,83.64
2022-08-07T16:32:46.356Z,85.08
2022-08-07T16:39:00.566Z,83.61
2022-08-07T16:53:48.318Z,83.65
2022-08-07T16:56:21.146Z,83.80
2022-08-07T17:13:24.228Z,95.43
2022-08-07T17:16:20.175Z,86.46
2022-08-07T17:19:18.132Z,83.87
2022-08-07T17:38:55.378Z,83.47
2022-08-07T17:42:04.580Z,84.09
2022-08-07T17:52:53.839Z,83.36
2022-08-07T17:55:59.998Z,83.31
2022-08-07T17:58:29.995Z,83.25
2022-08-07T18:01:20.787Z,83.22
2022-08-07T18:06:43.577Z,100.00
2022-08-07T18:12:20.239Z,100.00
2022-08-07T18:18:45.095Z,83.08
2022-08-07T18:21:04.569Z,83.07
2022-08-07T18:23:43.239Z,84.48
2022-08-07T18:26:19.517Z,83.03
2022-08-07T18:35:10.355Z,83.01
2022-08-07T18:38:59.590Z,84.42
2022-08-07T18:41:08.121Z,82.99
2022-08-07T18:43:51.330Z,82.98
2022-08-07T18:46:31.847Z,84.40
2022-08-07T18:50:18.974Z,83.10
2022-08-07T18:52:40.785Z,82.99
2022-08-07T18:55:41.794Z,83.63
2022-08-07T18:58:22.592Z,84.34
2022-08-07T19:03:44.718Z,84.32
2022-08-07T19:06:21.529Z,82.89
2022-08-07T19:09:55.389Z,83.57
2022-08-07T19:12:18.013Z,83.02
2022-08-07T19:15:02.455Z,100.00
2022-08-07T19:23:17.989Z,85.71
2022-08-07T19:26:23.164Z,84.24
2022-08-07T19:30:53.821Z,100.00
2022-08-07T19:31:57.728Z,100.00
2022-08-07T19:34:34.490Z,83.12
2022-08-07T19:37:17.289Z,85.67
2022-08-07T19:39:57.988Z,82.77
2022-08-07T19:42:39.932Z,100.00
2022-08-07T19:46:04.790Z,100.00
2022-08-07T19:48:05.106Z,100.00
2022-08-07T19:50:53.184Z,82.88
2022-08-07T19:54:33.903Z,100.00
2022-08-07T19:58:01.869Z,100.00
2022-08-07T19:59:03.348Z,83.05
2022-08-07T20:01:52.143Z,84.14
2022-08-07T20:04:31.962Z,100.00
2022-08-07T20:07:09.180Z,100.00
2022-08-07T20:10:33.363Z,100.00
2022-08-07T20:12:38.161Z,100.00
2022-08-07T20:15:18.923Z,100.00
2022-08-07T20:18:01.755Z,100.00
2022-08-07T20:20:34.877Z,88.55
2022-08-07T20:23:22.898Z,100.00
2022-08-07T20:25:56.821Z,100.00
2022-08-07T20:28:31.735Z,100.00
2022-08-07T20:31:01.628Z,100.00
2022-08-07T20:33:36.643Z,100.00
2022-08-07T20:36:10.285Z,100.00
2022-08-07T20:38:59.858Z,84.10
2022-08-07T20:41:34.178Z,100.00
2022-08-07T20:44:10.374Z,100.00
2022-08-07T20:46:45.019Z,100.00
2022-08-07T20:50:00.876Z,100.00
2022-08-07T20:54:53.020Z,100.00
2022-08-07T20:57:24.789Z,100.00
2022-08-07T21:00:06.191Z,100.00
2022-08-07T21:03:01.834Z,84.03
2022-08-07T21:05:51.516Z,100.00
2022-08-07T21:08:36.559Z,100.00
2022-08-07T21:13:58.009Z,82.56
2022-08-07T21:27:02.641Z,82.57
2022-08-07T21:32:47.200Z,82.64
2022-08-07T21:35:34.840Z,82.57
2022-08-07T21:40:51.049Z,82.61
2022-08-07T21:43:23.824Z,82.71
2022-08-07T21:49:00.593Z,82.88
2022-08-07T21:54:35.336Z,82.53
2022-08-07T22:00:06.124Z,83.95
2022-08-07T22:02:44.766Z,82.55
2022-08-07T22:05:22.099Z,82.52
2022-08-07T22:08:06.760Z,82.87
2022-08-07T22:10:42.427Z,82.87
2022-08-07T22:13:15.992Z,83.22
2022-08-07T22:16:39.391Z,82.55
2022-08-07T22:21:20.607Z,82.86
2022-08-07T22:23:55.878Z,82.67
2022-08-07T22:29:08.880Z,82.68
2022-08-07T22:32:00.022Z,83.21
2022-08-07T22:34:52.942Z,82.65
2022-08-07T22:40:28.131Z,83.90
2022-08-07T22:43:02.196Z,83.18
2022-08-07T22:46:40.681Z,100.00
2022-08-07T22:49:02.237Z,88.23
2022-08-07T22:51:57.387Z,82.79
2022-08-07T22:54:49.193Z,83.87
2022-08-07T22:57:42.026Z,93.96
2022-08-07T23:03:13.679Z,100.00
2022-08-07T23:06:16.706Z,100.00
2022-08-07T23:10:03.391Z,88.19
2022-08-07T23:12:32.663Z,88.20
2022-08-07T23:15:12.006Z,83.85
2022-08-07T23:21:04.341Z,82.77
2022-08-07T23:24:06.858Z,85.29
2022-08-07T23:26:57.179Z,100.00
2022-08-07T23:30:38.358Z,82.41
2022-08-07T23:34:20.300Z,83.10
2022-08-07T23:38:54.629Z,85.26
2022-08-07T23:41:47.566Z,100.00
2022-08-07T23:47:42.003Z,82.73
2022-08-07T23:50:37.665Z,100.00
2022-08-07T23:53:22.937Z,93.91
2022-08-07T23:56:21.166Z,93.92
2022-08-07T23:59:00.241Z,85.26
